sensor_id;sensor_type;location;lat;lon;timestamp;P1;durP1;ratioP1;P2;durP2;ratioP2
46643;SDS011;32371;51.032;5.816;2022-07-11T00:01:37;4.43;;;1.40;;
46643;SDS011;32371;51.032;5.816;2022-07-11T00:04:02;6.05;;;1.80;;
46643;SDS011;32371;51.032;5.816;2022-07-11T00:06:27;3.90;;;1.48;;
46643;SDS011;32371;51.032;5.816;2022-07-11T00:08:53;4.82;;;2.67;;
46643;SDS011;32371;51.032;5.816;2022-07-11T00:11:19;2.17;;;1.20;;
46643;SDS011;32371;51.032;5.816;2022-07-11T00:13:44;7.95;;;1.63;;
46643;SDS011;32371;51.032;5.816;2022-07-11T00:16:09;1.95;;;1.42;;
46643;SDS011;32371;51.032;5.816;2022-07-11T00:18:35;8.35;;;1.85;;
46643;SDS011;32371;51.032;5.816;2022-07-11T00:21:00;1.98;;;1.27;;
46643;SDS011;32371;51.032;5.816;2022-07-11T00:23:25;2.35;;;1.52;;
46643;SDS011;32371;51.032;5.816;2022-07-11T00:25:51;2.88;;;1.42;;
46643;SDS011;32371;51.032;5.816;2022-07-11T00:28:17;2.97;;;1.50;;
46643;SDS011;32371;51.032;5.816;2022-07-11T00:30:42;4.72;;;1.45;;
46643;SDS011;32371;51.032;5.816;2022-07-11T00:33:07;2.78;;;1.38;;
46643;SDS011;32371;51.032;5.816;2022-07-11T00:35:33;3.75;;;1.40;;
46643;SDS011;32371;51.032;5.816;2022-07-11T00:37:58;5.07;;;1.33;;
46643;SDS011;32371;51.032;5.816;2022-07-11T00:40:23;16.33;;;1.70;;
46643;SDS011;32371;51.032;5.816;2022-07-11T00:42:49;3.95;;;2.05;;
46643;SDS011;32371;51.032;5.816;2022-07-11T00:45:14;3.20;;;1.52;;
46643;SDS011;32371;51.032;5.816;2022-07-11T00:47:40;3.40;;;1.40;;
46643;SDS011;32371;51.032;5.816;2022-07-11T00:50:05;4.03;;;1.52;;
46643;SDS011;32371;51.032;5.816;2022-07-11T00:52:31;3.38;;;1.42;;
46643;SDS011;32371;51.032;5.816;2022-07-11T00:54:57;3.50;;;1.50;;
46643;SDS011;32371;51.032;5.816;2022-07-11T00:57:22;6.53;;;1.75;;
46643;SDS011;32371;51.032;5.816;2022-07-11T00:59:48;6.20;;;1.90;;
46643;SDS011;32371;51.032;5.816;2022-07-11T01:02:13;5.80;;;1.52;;
46643;SDS011;32371;51.032;5.816;2022-07-11T01:04:39;4.40;;;1.73;;
46643;SDS011;32371;51.032;5.816;2022-07-11T01:07:04;6.43;;;1.83;;
46643;SDS011;32371;51.032;5.816;2022-07-11T01:09:30;3.33;;;2.10;;
46643;SDS011;32371;51.032;5.816;2022-07-11T01:11:56;4.10;;;1.75;;
46643;SDS011;32371;51.032;5.816;2022-07-11T01:14:23;3.42;;;1.60;;
46643;SDS011;32371;51.032;5.816;2022-07-11T01:16:48;6.20;;;1.80;;
46643;SDS011;32371;51.032;5.816;2022-07-11T01:19:16;3.50;;;1.50;;
46643;SDS011;32371;51.032;5.816;2022-07-11T01:21:42;3.53;;;1.58;;
46643;SDS011;32371;51.032;5.816;2022-07-11T01:24:08;7.35;;;1.83;;
46643;SDS011;32371;51.032;5.816;2022-07-11T01:26:34;3.28;;;1.80;;
46643;SDS011;32371;51.032;5.816;2022-07-11T01:29:07;2.75;;;1.90;;
46643;SDS011;32371;51.032;5.816;2022-07-11T01:31:34;3.92;;;1.40;;
46643;SDS011;32371;51.032;5.816;2022-07-11T01:34:00;2.85;;;1.77;;
46643;SDS011;32371;51.032;5.816;2022-07-11T01:36:26;9.00;;;1.90;;
46643;SDS011;32371;51.032;5.816;2022-07-11T01:38:51;6.50;;;1.80;;
46643;SDS011;32371;51.032;5.816;2022-07-11T01:41:16;3.25;;;1.65;;
46643;SDS011;32371;51.032;5.816;2022-07-11T01:43:42;3.13;;;1.55;;
46643;SDS011;32371;51.032;5.816;2022-07-11T01:46:07;3.63;;;1.90;;
46643;SDS011;32371;51.032;5.816;2022-07-11T01:48:32;8.20;;;1.42;;
46643;SDS011;32371;51.032;5.816;2022-07-11T01:50:58;5.07;;;1.65;;
46643;SDS011;32371;51.032;5.816;2022-07-11T01:53:23;4.13;;;1.73;;
46643;SDS011;32371;51.032;5.816;2022-07-11T01:55:49;8.75;;;1.75;;
46643;SDS011;32371;51.032;5.816;2022-07-11T01:58:14;3.75;;;2.08;;
46643;SDS011;32371;51.032;5.816;2022-07-11T02:00:40;4.07;;;1.95;;
46643;SDS011;32371;51.032;5.816;2022-07-11T02:03:05;4.00;;;1.88;;
46643;SDS011;32371;51.032;5.816;2022-07-11T02:05:31;5.55;;;2.58;;
46643;SDS011;32371;51.032;5.816;2022-07-11T02:07:56;4.90;;;2.15;;
46643;SDS011;32371;51.032;5.816;2022-07-11T02:10:37;2.40;;;1.95;;
46643;SDS011;32371;51.032;5.816;2022-07-11T02:13:03;7.07;;;2.60;;
46643;SDS011;32371;51.032;5.816;2022-07-11T02:15:29;6.18;;;1.85;;
46643;SDS011;32371;51.032;5.816;2022-07-11T02:17:55;7.28;;;2.13;;
46643;SDS011;32371;51.032;5.816;2022-07-11T02:20:23;5.43;;;2.33;;
46643;SDS011;32371;51.032;5.816;2022-07-11T02:22:49;8.82;;;2.22;;
46643;SDS011;32371;51.032;5.816;2022-07-11T02:25:15;6.20;;;1.90;;
46643;SDS011;32371;51.032;5.816;2022-07-11T02:27:41;4.35;;;2.30;;
46643;SDS011;32371;51.032;5.816;2022-07-11T02:30:07;7.68;;;3.00;;
46643;SDS011;32371;51.032;5.816;2022-07-11T02:32:32;5.30;;;2.50;;
46643;SDS011;32371;51.032;5.816;2022-07-11T02:34:58;6.65;;;2.38;;
46643;SDS011;32371;51.032;5.816;2022-07-11T02:37:23;5.85;;;2.40;;
46643;SDS011;32371;51.032;5.816;2022-07-11T02:39:49;5.00;;;1.98;;
46643;SDS011;32371;51.032;5.816;2022-07-11T02:42:14;5.75;;;2.42;;
46643;SDS011;32371;51.032;5.816;2022-07-11T02:44:39;5.22;;;2.22;;
46643;SDS011;32371;51.032;5.816;2022-07-11T02:47:05;4.38;;;2.38;;
46643;SDS011;32371;51.032;5.816;2022-07-11T02:49:31;6.75;;;2.65;;
46643;SDS011;32371;51.032;5.816;2022-07-11T02:51:57;3.58;;;1.80;;
46643;SDS011;32371;51.032;5.816;2022-07-11T02:54:23;5.82;;;2.45;;
46643;SDS011;32371;51.032;5.816;2022-07-11T02:56:48;5.88;;;2.53;;
46643;SDS011;32371;51.032;5.816;2022-07-11T02:59:13;3.78;;;2.03;;
46643;SDS011;32371;51.032;5.816;2022-07-11T03:01:39;6.05;;;3.00;;
46643;SDS011;32371;51.032;5.816;2022-07-11T03:04:06;3.20;;;2.55;;
46643;SDS011;32371;51.032;5.816;2022-07-11T03:06:32;4.85;;;2.80;;
46643;SDS011;32371;51.032;5.816;2022-07-11T03:08:57;4.53;;;2.53;;
46643;SDS011;32371;51.032;5.816;2022-07-11T03:11:23;6.35;;;3.47;;
46643;SDS011;32371;51.032;5.816;2022-07-11T03:13:48;9.93;;;3.05;;
46643;SDS011;32371;51.032;5.816;2022-07-11T03:16:13;10.63;;;3.80;;
46643;SDS011;32371;51.032;5.816;2022-07-11T03:18:39;7.95;;;2.90;;
46643;SDS011;32371;51.032;5.816;2022-07-11T03:21:04;5.32;;;2.63;;
46643;SDS011;32371;51.032;5.816;2022-07-11T03:23:30;7.32;;;3.25;;
46643;SDS011;32371;51.032;5.816;2022-07-11T03:25:55;3.83;;;2.80;;
46643;SDS011;32371;51.032;5.816;2022-07-11T03:28:20;6.82;;;2.92;;
46643;SDS011;32371;51.032;5.816;2022-07-11T03:30:46;7.22;;;3.50;;
46643;SDS011;32371;51.032;5.816;2022-07-11T03:33:11;5.82;;;3.00;;
46643;SDS011;32371;51.032;5.816;2022-07-11T03:35:37;4.63;;;3.15;;
46643;SDS011;32371;51.032;5.816;2022-07-11T03:38:08;8.50;;;3.53;;
46643;SDS011;32371;51.032;5.816;2022-07-11T03:40:34;9.38;;;2.95;;
46643;SDS011;32371;51.032;5.816;2022-07-11T03:43:00;6.57;;;2.58;;
46643;SDS011;32371;51.032;5.816;2022-07-11T03:45:25;5.88;;;2.53;;
46643;SDS011;32371;51.032;5.816;2022-07-11T03:47:51;11.35;;;3.20;;
46643;SDS011;32371;51.032;5.816;2022-07-11T03:50:17;8.80;;;2.65;;
46643;SDS011;32371;51.032;5.816;2022-07-11T03:52:42;6.20;;;2.55;;
46643;SDS011;32371;51.032;5.816;2022-07-11T03:55:08;6.18;;;2.60;;
46643;SDS011;32371;51.032;5.816;2022-07-11T03:57:34;4.25;;;2.83;;
46643;SDS011;32371;51.032;5.816;2022-07-11T04:00:00;6.97;;;3.90;;
46643;SDS011;32371;51.032;5.816;2022-07-11T04:02:29;8.77;;;2.78;;
46643;SDS011;32371;51.032;5.816;2022-07-11T04:04:54;5.38;;;3.28;;
46643;SDS011;32371;51.032;5.816;2022-07-11T04:07:19;9.45;;;4.07;;
46643;SDS011;32371;51.032;5.816;2022-07-11T04:09:45;6.80;;;3.03;;
46643;SDS011;32371;51.032;5.816;2022-07-11T04:12:11;8.68;;;3.97;;
46643;SDS011;32371;51.032;5.816;2022-07-11T04:14:36;7.82;;;3.45;;
46643;SDS011;32371;51.032;5.816;2022-07-11T04:17:01;7.35;;;3.90;;
46643;SDS011;32371;51.032;5.816;2022-07-11T04:19:27;6.43;;;3.92;;
46643;SDS011;32371;51.032;5.816;2022-07-11T04:21:52;7.70;;;4.18;;
46643;SDS011;32371;51.032;5.816;2022-07-11T04:24:18;5.90;;;4.13;;
46643;SDS011;32371;51.032;5.816;2022-07-11T04:26:43;6.10;;;4.50;;
46643;SDS011;32371;51.032;5.816;2022-07-11T04:29:08;6.75;;;3.78;;
46643;SDS011;32371;51.032;5.816;2022-07-11T04:31:34;8.23;;;3.97;;
46643;SDS011;32371;51.032;5.816;2022-07-11T04:33:59;14.85;;;4.65;;
46643;SDS011;32371;51.032;5.816;2022-07-11T04:36:24;8.68;;;4.25;;
46643;SDS011;32371;51.032;5.816;2022-07-11T04:38:50;7.75;;;4.47;;
46643;SDS011;32371;51.032;5.816;2022-07-11T04:41:15;9.70;;;4.85;;
46643;SDS011;32371;51.032;5.816;2022-07-11T04:43:40;8.90;;;4.25;;
46643;SDS011;32371;51.032;5.816;2022-07-11T04:46:06;8.02;;;4.35;;
46643;SDS011;32371;51.032;5.816;2022-07-11T04:48:31;8.15;;;4.70;;
46643;SDS011;32371;51.032;5.816;2022-07-11T04:50:57;13.48;;;5.28;;
46643;SDS011;32371;51.032;5.816;2022-07-11T04:53:22;13.73;;;4.68;;
46643;SDS011;32371;51.032;5.816;2022-07-11T04:55:48;5.82;;;4.72;;
46643;SDS011;32371;51.032;5.816;2022-07-11T04:58:14;13.07;;;4.50;;
46643;SDS011;32371;51.032;5.816;2022-07-11T05:00:39;9.45;;;4.63;;
46643;SDS011;32371;51.032;5.816;2022-07-11T05:03:04;7.43;;;4.43;;
46643;SDS011;32371;51.032;5.816;2022-07-11T05:05:30;8.52;;;5.30;;
46643;SDS011;32371;51.032;5.816;2022-07-11T05:07:55;11.82;;;4.85;;
46643;SDS011;32371;51.032;5.816;2022-07-11T05:10:21;8.80;;;4.55;;
46643;SDS011;32371;51.032;5.816;2022-07-11T05:12:46;10.90;;;5.05;;
46643;SDS011;32371;51.032;5.816;2022-07-11T05:15:12;12.18;;;5.07;;
46643;SDS011;32371;51.032;5.816;2022-07-11T05:17:37;9.13;;;5.30;;
46643;SDS011;32371;51.032;5.816;2022-07-11T05:20:03;10.68;;;4.07;;
46643;SDS011;32371;51.032;5.816;2022-07-11T05:22:29;9.27;;;4.30;;
46643;SDS011;32371;51.032;5.816;2022-07-11T05:24:55;10.48;;;5.28;;
46643;SDS011;32371;51.032;5.816;2022-07-11T05:27:20;7.68;;;4.70;;
46643;SDS011;32371;51.032;5.816;2022-07-11T05:29:45;9.93;;;4.53;;
46643;SDS011;32371;51.032;5.816;2022-07-11T05:32:11;12.98;;;4.63;;
46643;SDS011;32371;51.032;5.816;2022-07-11T05:34:36;7.28;;;4.38;;
46643;SDS011;32371;51.032;5.816;2022-07-11T05:37:02;8.57;;;3.75;;
46643;SDS011;32371;51.032;5.816;2022-07-11T05:39:27;7.45;;;3.58;;
46643;SDS011;32371;51.032;5.816;2022-07-11T05:41:53;8.15;;;4.32;;
46643;SDS011;32371;51.032;5.816;2022-07-11T05:44:19;6.93;;;3.30;;
46643;SDS011;32371;51.032;5.816;2022-07-11T05:46:44;7.78;;;3.70;;
46643;SDS011;32371;51.032;5.816;2022-07-11T05:49:10;5.90;;;3.63;;
46643;SDS011;32371;51.032;5.816;2022-07-11T05:51:37;11.15;;;4.03;;
46643;SDS011;32371;51.032;5.816;2022-07-11T05:54:03;8.65;;;4.10;;
46643;SDS011;32371;51.032;5.816;2022-07-11T05:56:28;6.95;;;3.60;;
46643;SDS011;32371;51.032;5.816;2022-07-11T05:58:54;9.18;;;4.05;;
46643;SDS011;32371;51.032;5.816;2022-07-11T06:01:20;8.32;;;3.22;;
46643;SDS011;32371;51.032;5.816;2022-07-11T06:03:46;6.40;;;2.80;;
46643;SDS011;32371;51.032;5.816;2022-07-11T06:06:12;14.02;;;3.72;;
46643;SDS011;32371;51.032;5.816;2022-07-11T06:08:37;7.55;;;2.78;;
46643;SDS011;32371;51.032;5.816;2022-07-11T06:11:06;6.47;;;3.45;;
46643;SDS011;32371;51.032;5.816;2022-07-11T06:13:32;13.23;;;3.15;;
46643;SDS011;32371;51.032;5.816;2022-07-11T06:15:58;7.78;;;2.88;;
46643;SDS011;32371;51.032;5.816;2022-07-11T06:18:24;6.43;;;3.20;;
46643;SDS011;32371;51.032;5.816;2022-07-11T06:20:49;10.05;;;3.72;;
46643;SDS011;32371;51.032;5.816;2022-07-11T06:23:15;6.07;;;3.08;;
46643;SDS011;32371;51.032;5.816;2022-07-11T06:25:41;5.25;;;2.83;;
46643;SDS011;32371;51.032;5.816;2022-07-11T06:28:06;9.00;;;2.80;;
46643;SDS011;32371;51.032;5.816;2022-07-11T06:30:32;4.45;;;2.10;;
46643;SDS011;32371;51.032;5.816;2022-07-11T06:32:58;5.10;;;2.60;;
46643;SDS011;32371;51.032;5.816;2022-07-11T06:35:23;7.32;;;2.53;;
46643;SDS011;32371;51.032;5.816;2022-07-11T06:37:49;9.77;;;3.22;;
46643;SDS011;32371;51.032;5.816;2022-07-11T06:40:14;4.15;;;2.10;;
46643;SDS011;32371;51.032;5.816;2022-07-11T06:42:42;3.35;;;2.22;;
46643;SDS011;32371;51.032;5.816;2022-07-11T06:45:08;7.10;;;2.10;;
46643;SDS011;32371;51.032;5.816;2022-07-11T06:47:34;3.47;;;1.95;;
46643;SDS011;32371;51.032;5.816;2022-07-11T06:49:59;14.73;;;2.08;;
46643;SDS011;32371;51.032;5.816;2022-07-11T06:52:25;5.63;;;1.98;;
46643;SDS011;32371;51.032;5.816;2022-07-11T06:54:50;4.03;;;2.50;;
46643;SDS011;32371;51.032;5.816;2022-07-11T06:57:15;6.88;;;2.55;;
46643;SDS011;32371;51.032;5.816;2022-07-11T06:59:41;4.82;;;2.47;;
46643;SDS011;32371;51.032;5.816;2022-07-11T07:02:06;6.45;;;2.10;;
46643;SDS011;32371;51.032;5.816;2022-07-11T07:04:31;6.90;;;2.10;;
46643;SDS011;32371;51.032;5.816;2022-07-11T07:06:57;13.15;;;4.32;;
46643;SDS011;32371;51.032;5.816;2022-07-11T07:09:25;4.57;;;2.10;;
46643;SDS011;32371;51.032;5.816;2022-07-11T07:11:51;7.22;;;2.88;;
46643;SDS011;32371;51.032;5.816;2022-07-11T07:14:16;3.13;;;2.15;;
46643;SDS011;32371;51.032;5.816;2022-07-11T07:16:42;9.40;;;1.77;;
46643;SDS011;32371;51.032;5.816;2022-07-11T07:19:07;5.97;;;2.03;;
46643;SDS011;32371;51.032;5.816;2022-07-11T07:21:32;5.82;;;1.90;;
46643;SDS011;32371;51.032;5.816;2022-07-11T07:23:58;4.20;;;1.85;;
46643;SDS011;32371;51.032;5.816;2022-07-11T07:26:23;6.35;;;1.77;;
46643;SDS011;32371;51.032;5.816;2022-07-11T07:28:49;6.32;;;1.63;;
46643;SDS011;32371;51.032;5.816;2022-07-11T07:31:14;3.72;;;1.50;;
46643;SDS011;32371;51.032;5.816;2022-07-11T07:33:40;6.00;;;2.08;;
46643;SDS011;32371;51.032;5.816;2022-07-11T07:36:05;5.18;;;1.70;;
46643;SDS011;32371;51.032;5.816;2022-07-11T07:38:31;4.15;;;3.00;;
46643;SDS011;32371;51.032;5.816;2022-07-11T07:40:56;6.60;;;1.77;;
46643;SDS011;32371;51.032;5.816;2022-07-11T07:43:22;2.92;;;1.73;;
46643;SDS011;32371;51.032;5.816;2022-07-11T07:45:47;4.20;;;2.60;;
46643;SDS011;32371;51.032;5.816;2022-07-11T07:48:12;4.03;;;1.60;;
46643;SDS011;32371;51.032;5.816;2022-07-11T07:50:38;3.10;;;1.80;;
46643;SDS011;32371;51.032;5.816;2022-07-11T07:53:03;9.88;;;2.00;;
46643;SDS011;32371;51.032;5.816;2022-07-11T07:55:28;3.75;;;1.63;;
46643;SDS011;32371;51.032;5.816;2022-07-11T07:57:54;5.43;;;2.17;;
46643;SDS011;32371;51.032;5.816;2022-07-11T08:00:19;3.20;;;1.65;;
46643;SDS011;32371;51.032;5.816;2022-07-11T08:03:04;3.70;;;1.70;;
46643;SDS011;32371;51.032;5.816;2022-07-11T08:05:34;4.28;;;1.42;;
46643;SDS011;32371;51.032;5.816;2022-07-11T08:07:59;2.42;;;1.40;;
46643;SDS011;32371;51.032;5.816;2022-07-11T08:10:25;4.00;;;1.67;;
46643;SDS011;32371;51.032;5.816;2022-07-11T08:12:50;6.85;;;1.52;;
46643;SDS011;32371;51.032;5.816;2022-07-11T08:15:16;2.70;;;1.45;;
46643;SDS011;32371;51.032;5.816;2022-07-11T08:17:41;2.15;;;1.20;;
46643;SDS011;32371;51.032;5.816;2022-07-11T08:20:07;2.97;;;1.30;;
46643;SDS011;32371;51.032;5.816;2022-07-11T08:22:32;4.22;;;1.83;;
46643;SDS011;32371;51.032;5.816;2022-07-11T08:24:58;7.05;;;1.70;;
46643;SDS011;32371;51.032;5.816;2022-07-11T08:27:23;2.63;;;1.10;;
46643;SDS011;32371;51.032;5.816;2022-07-11T08:29:49;3.15;;;1.10;;
46643;SDS011;32371;51.032;5.816;2022-07-11T08:32:14;4.40;;;1.50;;
46643;SDS011;32371;51.032;5.816;2022-07-11T08:34:40;1.55;;;1.13;;
46643;SDS011;32371;51.032;5.816;2022-07-11T08:37:05;3.65;;;1.58;;
46643;SDS011;32371;51.032;5.816;2022-07-11T08:39:30;7.13;;;1.58;;
46643;SDS011;32371;51.032;5.816;2022-07-11T08:41:56;12.50;;;2.05;;
46643;SDS011;32371;51.032;5.816;2022-07-11T08:44:21;3.83;;;1.60;;
46643;SDS011;32371;51.032;5.816;2022-07-11T08:46:48;4.32;;;1.77;;
46643;SDS011;32371;51.032;5.816;2022-07-11T08:49:14;4.18;;;1.75;;
46643;SDS011;32371;51.032;5.816;2022-07-11T08:51:40;1.88;;;1.30;;
46643;SDS011;32371;51.032;5.816;2022-07-11T08:54:06;4.63;;;1.55;;
46643;SDS011;32371;51.032;5.816;2022-07-11T08:56:31;6.35;;;1.90;;
46643;SDS011;32371;51.032;5.816;2022-07-11T08:59:00;6.82;;;1.70;;
46643;SDS011;32371;51.032;5.816;2022-07-11T09:01:29;3.28;;;1.40;;
46643;SDS011;32371;51.032;5.816;2022-07-11T09:03:59;2.40;;;1.67;;
46643;SDS011;32371;51.032;5.816;2022-07-11T09:06:25;6.97;;;1.20;;
46643;SDS011;32371;51.032;5.816;2022-07-11T09:08:51;5.40;;;1.60;;
46643;SDS011;32371;51.032;5.816;2022-07-11T09:11:17;2.55;;;1.42;;
46643;SDS011;32371;51.032;5.816;2022-07-11T09:13:42;7.22;;;1.55;;
46643;SDS011;32371;51.032;5.816;2022-07-11T09:16:08;5.60;;;1.15;;
46643;SDS011;32371;51.032;5.816;2022-07-11T09:18:38;4.65;;;1.20;;
46643;SDS011;32371;51.032;5.816;2022-07-11T09:23:56;3.90;;;1.17;;
46643;SDS011;32371;51.032;5.816;2022-07-11T09:26:42;5.85;;;1.13;;
46643;SDS011;32371;51.032;5.816;2022-07-11T09:29:10;2.83;;;1.23;;
46643;SDS011;32371;51.032;5.816;2022-07-11T09:31:39;2.75;;;1.35;;
46643;SDS011;32371;51.032;5.816;2022-07-11T09:34:10;2.25;;;1.70;;
46643;SDS011;32371;51.032;5.816;2022-07-11T09:36:50;3.28;;;1.75;;
46643;SDS011;32371;51.032;5.816;2022-07-11T09:39:18;5.60;;;1.50;;
46643;SDS011;32371;51.032;5.816;2022-07-11T09:41:44;6.72;;;1.60;;
46643;SDS011;32371;51.032;5.816;2022-07-11T09:46:48;2.65;;;1.85;;
46643;SDS011;32371;51.032;5.816;2022-07-11T09:49:15;2.13;;;1.88;;
46643;SDS011;32371;51.032;5.816;2022-07-11T09:51:42;4.57;;;1.92;;
46643;SDS011;32371;51.032;5.816;2022-07-11T09:54:08;2.50;;;2.00;;
46643;SDS011;32371;51.032;5.816;2022-07-11T09:59:00;3.30;;;1.35;;
46643;SDS011;32371;51.032;5.816;2022-07-11T10:01:27;2.47;;;1.50;;
46643;SDS011;32371;51.032;5.816;2022-07-11T10:03:56;4.32;;;1.60;;
46643;SDS011;32371;51.032;5.816;2022-07-11T10:06:22;2.80;;;1.63;;
46643;SDS011;32371;51.032;5.816;2022-07-11T10:08:48;2.67;;;1.73;;
46643;SDS011;32371;51.032;5.816;2022-07-11T10:11:15;3.33;;;1.58;;
46643;SDS011;32371;51.032;5.816;2022-07-11T10:13:41;2.35;;;1.52;;
46643;SDS011;32371;51.032;5.816;2022-07-11T10:16:20;4.38;;;1.65;;
46643;SDS011;32371;51.032;5.816;2022-07-11T10:22:15;3.90;;;1.40;;
46643;SDS011;32371;51.032;5.816;2022-07-11T10:30:04;2.40;;;1.52;;
46643;SDS011;32371;51.032;5.816;2022-07-11T10:32:30;3.38;;;1.85;;
46643;SDS011;32371;51.032;5.816;2022-07-11T10:35:08;2.42;;;1.70;;
46643;SDS011;32371;51.032;5.816;2022-07-11T10:37:53;4.10;;;1.92;;
46643;SDS011;32371;51.032;5.816;2022-07-11T10:43:13;4.75;;;1.85;;
46643;SDS011;32371;51.032;5.816;2022-07-11T10:48:24;1.98;;;1.15;;
46643;SDS011;32371;51.032;5.816;2022-07-11T10:51:10;4.57;;;1.60;;
46643;SDS011;32371;51.032;5.816;2022-07-11T10:53:44;1.95;;;1.50;;
46643;SDS011;32371;51.032;5.816;2022-07-11T10:59:14;3.67;;;1.90;;
46643;SDS011;32371;51.032;5.816;2022-07-11T11:07:26;3.90;;;1.98;;
46643;SDS011;32371;51.032;5.816;2022-07-11T11:09:55;3.45;;;1.75;;
46643;SDS011;32371;51.032;5.816;2022-07-11T11:12:38;5.15;;;2.50;;
46643;SDS011;32371;51.032;5.816;2022-07-11T11:23:42;4.43;;;2.20;;
46643;SDS011;32371;51.032;5.816;2022-07-11T11:26:14;4.15;;;2.00;;
46643;SDS011;32371;51.032;5.816;2022-07-11T11:31:21;4.15;;;2.10;;
46643;SDS011;32371;51.032;5.816;2022-07-11T11:33:47;4.95;;;2.00;;
46643;SDS011;32371;51.032;5.816;2022-07-11T11:36:15;2.05;;;1.67;;
46643;SDS011;32371;51.032;5.816;2022-07-11T11:38:41;3.00;;;1.60;;
46643;SDS011;32371;51.032;5.816;2022-07-11T11:41:07;2.45;;;1.95;;
46643;SDS011;32371;51.032;5.816;2022-07-11T11:43:33;2.50;;;1.67;;
46643;SDS011;32371;51.032;5.816;2022-07-11T11:45:59;3.33;;;2.08;;
46643;SDS011;32371;51.032;5.816;2022-07-11T11:48:31;5.70;;;2.00;;
46643;SDS011;32371;51.032;5.816;2022-07-11T11:51:04;7.38;;;2.10;;
46643;SDS011;32371;51.032;5.816;2022-07-11T11:53:44;2.65;;;1.75;;
46643;SDS011;32371;51.032;5.816;2022-07-11T11:56:24;3.83;;;1.95;;
46643;SDS011;32371;51.032;5.816;2022-07-11T11:58:55;3.55;;;2.17;;
46643;SDS011;32371;51.032;5.816;2022-07-11T12:01:29;6.07;;;2.50;;
46643;SDS011;32371;51.032;5.816;2022-07-11T12:03:56;2.55;;;2.35;;
46643;SDS011;32371;51.032;5.816;2022-07-11T12:06:31;4.50;;;2.22;;
46643;SDS011;32371;51.032;5.816;2022-07-11T12:08:58;4.63;;;2.77;;
46643;SDS011;32371;51.032;5.816;2022-07-11T12:11:24;3.58;;;2.70;;
46643;SDS011;32371;51.032;5.816;2022-07-11T12:14:00;5.60;;;2.85;;
46643;SDS011;32371;51.032;5.816;2022-07-11T12:16:27;4.03;;;3.08;;
46643;SDS011;32371;51.032;5.816;2022-07-11T12:21:35;4.65;;;3.40;;
46643;SDS011;32371;51.032;5.816;2022-07-11T12:24:10;4.65;;;3.20;;
46643;SDS011;32371;51.032;5.816;2022-07-11T12:26:39;2.70;;;2.28;;
46643;SDS011;32371;51.032;5.816;2022-07-11T12:29:15;4.20;;;2.80;;
46643;SDS011;32371;51.032;5.816;2022-07-11T12:34:14;4.35;;;3.00;;
46643;SDS011;32371;51.032;5.816;2022-07-11T12:36:40;3.45;;;2.90;;
46643;SDS011;32371;51.032;5.816;2022-07-11T12:39:06;4.57;;;2.50;;
46643;SDS011;32371;51.032;5.816;2022-07-11T12:41:32;5.35;;;1.92;;
46643;SDS011;32371;51.032;5.816;2022-07-11T12:43:58;3.45;;;2.03;;
46643;SDS011;32371;51.032;5.816;2022-07-11T12:46:42;3.55;;;1.67;;
46643;SDS011;32371;51.032;5.816;2022-07-11T12:49:09;5.30;;;1.85;;
46643;SDS011;32371;51.032;5.816;2022-07-11T12:51:40;1.20;;;1.13;;
46643;SDS011;32371;51.032;5.816;2022-07-11T12:54:15;2.30;;;1.50;;
46643;SDS011;32371;51.032;5.816;2022-07-11T12:56:54;6.50;;;1.90;;
46643;SDS011;32371;51.032;5.816;2022-07-11T12:59:22;2.05;;;1.60;;
46643;SDS011;32371;51.032;5.816;2022-07-11T13:02:02;3.08;;;1.50;;
46643;SDS011;32371;51.032;5.816;2022-07-11T13:04:38;1.25;;;1.10;;
46643;SDS011;32371;51.032;5.816;2022-07-11T13:10:08;2.35;;;1.25;;
46643;SDS011;32371;51.032;5.816;2022-07-11T13:12:44;2.97;;;1.35;;
46643;SDS011;32371;51.032;5.816;2022-07-11T13:15:11;3.15;;;1.58;;
46643;SDS011;32371;51.032;5.816;2022-07-11T13:17:38;4.68;;;1.23;;
46643;SDS011;32371;51.032;5.816;2022-07-11T13:20:06;1.35;;;1.13;;
46643;SDS011;32371;51.032;5.816;2022-07-11T13:22:33;2.45;;;1.55;;
46643;SDS011;32371;51.032;5.816;2022-07-11T13:24:58;4.65;;;1.50;;
46643;SDS011;32371;51.032;5.816;2022-07-11T13:27:24;1.63;;;1.33;;
46643;SDS011;32371;51.032;5.816;2022-07-11T13:29:49;4.78;;;1.45;;
46643;SDS011;32371;51.032;5.816;2022-07-11T13:32:14;1.50;;;1.30;;
46643;SDS011;32371;51.032;5.816;2022-07-11T13:34:40;1.38;;;1.27;;
46643;SDS011;32371;51.032;5.816;2022-07-11T13:37:05;3.22;;;1.45;;
46643;SDS011;32371;51.032;5.816;2022-07-11T13:39:31;3.20;;;1.20;;
46643;SDS011;32371;51.032;5.816;2022-07-11T13:41:56;1.50;;;1.40;;
46643;SDS011;32371;51.032;5.816;2022-07-11T13:44:21;1.95;;;1.30;;
46643;SDS011;32371;51.032;5.816;2022-07-11T13:46:47;1.30;;;1.20;;
46643;SDS011;32371;51.032;5.816;2022-07-11T13:49:12;1.25;;;1.15;;
46643;SDS011;32371;51.032;5.816;2022-07-11T13:51:38;1.42;;;1.30;;
46643;SDS011;32371;51.032;5.816;2022-07-11T13:54:04;3.47;;;0.90;;
46643;SDS011;32371;51.032;5.816;2022-07-11T13:56:29;1.25;;;1.15;;
46643;SDS011;32371;51.032;5.816;2022-07-11T13:58:55;3.83;;;1.42;;
46643;SDS011;32371;51.032;5.816;2022-07-11T14:01:20;2.17;;;1.20;;
46643;SDS011;32371;51.032;5.816;2022-07-11T14:03:45;2.42;;;2.10;;
46643;SDS011;32371;51.032;5.816;2022-07-11T14:06:11;3.17;;;1.67;;
46643;SDS011;32371;51.032;5.816;2022-07-11T14:08:36;7.70;;;1.42;;
46643;SDS011;32371;51.032;5.816;2022-07-11T14:11:02;2.58;;;1.17;;
46643;SDS011;32371;51.032;5.816;2022-07-11T14:13:27;2.08;;;1.52;;
46643;SDS011;32371;51.032;5.816;2022-07-11T14:15:53;3.28;;;1.10;;
46643;SDS011;32371;51.032;5.816;2022-07-11T14:18:18;3.60;;;1.60;;
46643;SDS011;32371;51.032;5.816;2022-07-11T14:20:44;2.90;;;0.95;;
46643;SDS011;32371;51.032;5.816;2022-07-11T14:23:09;1.20;;;0.98;;
46643;SDS011;32371;51.032;5.816;2022-07-11T14:25:34;0.80;;;0.80;;
46643;SDS011;32371;51.032;5.816;2022-07-11T14:28:00;1.55;;;1.02;;
46643;SDS011;32371;51.032;5.816;2022-07-11T14:30:26;1.77;;;0.82;;
46643;SDS011;32371;51.032;5.816;2022-07-11T14:32:51;6.28;;;1.35;;
46643;SDS011;32371;51.032;5.816;2022-07-11T14:35:16;2.97;;;0.82;;
46643;SDS011;32371;51.032;5.816;2022-07-11T14:37:42;0.80;;;0.65;;
46643;SDS011;32371;51.032;5.816;2022-07-11T14:40:09;1.10;;;0.73;;
46643;SDS011;32371;51.032;5.816;2022-07-11T14:42:34;2.92;;;0.88;;
46643;SDS011;32371;51.032;5.816;2022-07-11T14:45:00;2.97;;;1.00;;
46643;SDS011;32371;51.032;5.816;2022-07-11T14:47:25;1.25;;;1.00;;
46643;SDS011;32371;51.032;5.816;2022-07-11T14:49:51;2.15;;;0.90;;
46643;SDS011;32371;51.032;5.816;2022-07-11T14:52:16;0.65;;;0.65;;
46643;SDS011;32371;51.032;5.816;2022-07-11T14:54:43;1.00;;;0.90;;
46643;SDS011;32371;51.032;5.816;2022-07-11T14:57:09;3.70;;;0.80;;
46643;SDS011;32371;51.032;5.816;2022-07-11T14:59:35;0.93;;;0.63;;
46643;SDS011;32371;51.032;5.816;2022-07-11T15:02:01;0.80;;;0.80;;
46643;SDS011;32371;51.032;5.816;2022-07-11T15:04:26;8.30;;;1.30;;
46643;SDS011;32371;51.032;5.816;2022-07-11T15:06:52;1.45;;;0.80;;
46643;SDS011;32371;51.032;5.816;2022-07-11T15:09:36;2.42;;;1.10;;
46643;SDS011;32371;51.032;5.816;2022-07-11T15:12:20;1.13;;;1.02;;
46643;SDS011;32371;51.032;5.816;2022-07-11T15:14:45;0.88;;;0.63;;
46643;SDS011;32371;51.032;5.816;2022-07-11T15:17:11;1.00;;;1.00;;
46643;SDS011;32371;51.032;5.816;2022-07-11T15:19:36;2.25;;;1.00;;
46643;SDS011;32371;51.032;5.816;2022-07-11T15:22:01;2.28;;;0.90;;
46643;SDS011;32371;51.032;5.816;2022-07-11T15:24:27;1.60;;;0.90;;
46643;SDS011;32371;51.032;5.816;2022-07-11T15:26:52;1.05;;;0.80;;
46643;SDS011;32371;51.032;5.816;2022-07-11T15:29:18;0.95;;;0.73;;
46643;SDS011;32371;51.032;5.816;2022-07-11T15:31:43;5.68;;;0.60;;
46643;SDS011;32371;51.032;5.816;2022-07-11T15:34:09;0.88;;;0.60;;
46643;SDS011;32371;51.032;5.816;2022-07-11T15:36:34;1.45;;;1.35;;